Airfield :
LOGIN :

Register | Disclaimer

   EN    FR    IT 

 










Legend :    VFR   Marginal VFR   IFR   Intensive IFR   Very Intensive IFR
Visi :
Ceiling :
>= 8 km
>= 3000ft
5 to 8 km
1000 to 3000 ft
1500m to 5 km
500 to 1000 ft
800 to 1500m
200 to 500 ft
< 800m
< 200 ft
Symbols :   Thunderstorms  Fog  Heavy snow  Heavy precipitations  Wind > 20 kt
SIGMETs :     Misc.  Thunderstorms  Icing  Turbulence  Mountain Waves  Volcanic Ashes







- Airport Elevation : 97 ft
- IATA code : EBJ


EKEB - Esbjerg

CURRENT METAR :
  • 151950Z AUTO 27015KT 9999 FEW038/// SCT045/// SCT053/// 13/06 Q1016

EXPIRED METARs :
  • 151920Z AUTO 28015KT 9999 BKN034/// 13/05 Q1016
  • 151850Z AUTO 27016KT 9999 FEW030/// BKN049/// 13/07 Q1016
  • 151820Z AUTO 27015KT 9999 BKN048/// 13/07 Q1016
  • 151750Z AUTO 28015KT 9999 BKN040/// 13/06 Q1016
  • 151720Z AUTO 27014KT 9999 BKN035/// 13/07 Q1016

TAF TAF EKEB
Valid from the 15 at 18:00 until the 15 at 22:00 UTC


151727Z 1518/1522 28015KT 9999 SCT030
TEMPO 1518/1522 28017G27KT
No reported NOTAMs for that airfield.



MET'MAP, your aeronautical weather chart ! - Copyright ORBIFLY December 2007 - Disclaimer

ORBIFLY MET'MAP TEAM :

Programming & Development : Alexandra Zaïnal
Concept & Development : Baudouin d'Aumeries
Co-Development & Prog : Marc-Olivier Méhu
Technical & hardware support : Manuel Goepfert

Contact : metmap@orbifly.com




SOURCES & CREDITS :

   NOAA